Time;durP1;ratioP1;P1;durP2;ratioP2;P2;SDS_P1;SDS_P2;PMS_P1;PMS_P2;Temp;Humidity;BMP_temperature;BMP_pressure;BME280_temperature;BME280_humidity;BME280_pressure;Samples;Min_cycle;Max_cycle;Signal;HPM_P1;HPM_P2
2022/08/19 00:00:35;;;;;;;12.02;7.13;;;;;;;18.68;100.00;100561.44;5029944;28;20423;-91
2022/08/19 00:03:03;;;;;;;10.17;6.67;;;;;;;18.75;100.00;100549.84;5031658;28;20434;-92
2022/08/19 00:05:32;;;;;;;11.75;7.13;;;;;;;18.57;100.00;100527.13;5014573;28;20736;-91
2022/08/19 00:08:01;;;;;;;11.98;7.38;;;;;;;18.63;100.00;100547.03;5023358;28;20425;-92
2022/08/19 00:10:29;;;;;;;13.23;7.60;;;;;;;18.62;100.00;100526.16;5011668;28;20419;-91
2022/08/19 00:12:59;;;;;;;12.93;7.75;;;;;;;18.48;100.00;100510.69;5009641;28;20419;-90
2022/08/19 00:15:27;;;;;;;13.85;8.02;;;;;;;18.50;100.00;100518.63;5031455;28;20791;-89
2022/08/19 00:18:01;;;;;;;12.93;7.80;;;;;;;18.28;100.00;100493.03;5039175;28;20421;-90
2022/08/19 00:20:29;;;;;;;13.93;8.13;;;;;;;18.30;100.00;100504.53;5030257;28;20411;-90
2022/08/19 00:22:57;;;;;;;15.00;8.60;;;;;;;18.46;100.00;100523.19;5010568;28;20419;-92
2022/08/19 00:25:26;;;;;;;14.43;8.50;;;;;;;18.49;100.00;100539.88;5033094;28;20422;-92
2022/08/19 00:27:54;;;;;;;13.65;8.25;;;;;;;18.55;100.00;100531.38;5028720;28;20423;-91
2022/08/19 00:30:29;;;;;;;14.75;8.63;;;;;;;18.43;100.00;100510.09;5037928;28;20447;-89
2022/08/19 00:32:59;;;;;;;15.05;9.15;;;;;;;18.41;100.00;100493.91;5027120;28;20416;-92
2022/08/19 00:35:29;;;;;;;13.43;8.38;;;;;;;18.28;100.00;100484.75;5029804;28;20510;-90
2022/08/19 00:37:58;;;;;;;14.63;9.07;;;;;;;18.39;100.00;100487.13;5013131;28;20419;-90
2022/08/19 00:40:27;;;;;;;16.23;9.75;;;;;;;18.48;100.00;100496.91;5021591;28;20427;-90
2022/08/19 00:42:55;;;;;;;16.48;9.80;;;;;;;18.34;100.00;100480.66;5019413;28;20427;-90
2022/08/19 00:45:32;;;;;;;14.30;9.50;;;;;;;18.25;100.00;100474.41;5014294;28;20421;-90
2022/08/19 00:48:03;;;;;;;16.35;9.88;;;;;;;18.43;100.00;100494.34;5013577;28;20888;-93
2022/08/19 00:50:33;;;;;;;18.77;10.57;;;;;;;18.57;100.00;100496.81;5014876;28;20419;-92
2022/08/19 00:53:04;;;;;;;17.55;10.00;;;;;;;18.36;100.00;100480.31;5013757;28;20423;-91
2022/08/19 00:55:34;;;;;;;16.10;10.48;;;;;;;18.25;100.00;100451.59;5002547;28;20415;-89
2022/08/19 00:58:09;;;;;;;18.42;10.48;;;;;;;18.43;100.00;100499.88;5015066;28;20422;-92
2022/08/19 01:00:39;;;;;;;17.42;10.40;;;;;;;18.12;100.00;100451.53;5006052;28;20418;-90
2022/08/19 01:03:15;;;;;;;18.00;11.25;;;;;;;18.55;100.00;100507.41;5029811;28;20419;-89
2022/08/19 01:05:45;;;;;;;18.48;10.40;;;;;;;18.63;100.00;100484.47;5013536;28;20922;-90
2022/08/19 01:08:16;;;;;;;21.83;11.15;;;;;;;18.58;100.00;100492.94;5002383;28;20419;-91
2022/08/19 01:10:48;;;;;;;18.25;10.65;;;;;;;18.69;100.00;100501.59;5029895;28;20422;-90
2022/08/19 01:13:18;;;;;;;19.98;11.23;;;;;;;18.48;100.00;100487.84;5030344;28;20414;-89
2022/08/19 01:15:53;;;;;;;17.40;10.73;;;;;;;18.61;100.00;100496.97;5015301;28;20424;-90
2022/08/19 01:18:21;;;;;;;18.70;11.32;;;;;;;18.38;100.00;100466.22;5017946;28;20422;-90
2022/08/19 01:20:51;;;;;;;18.00;11.70;;;;;;;18.60;100.00;100504.44;5022876;28;20429;-89
2022/08/19 01:23:21;;;;;;;21.37;12.03;;;;;;;18.61;100.00;100505.22;5034956;28;20432;-89
2022/08/19 01:25:55;;;;;;;20.20;11.85;;;;;;;18.42;100.00;100498.28;5015177;28;20418;-88
2022/08/19 01:28:26;;;;;;;20.20;11.87;;;;;;;18.47;100.00;100509.06;5017471;28;20411;-89
2022/08/19 01:30:59;;;;;;;20.13;12.35;;;;;;;18.48;100.00;100513.44;5033024;28;20419;-91
2022/08/19 01:33:30;;;;;;;20.77;12.18;;;;;;;18.52;100.00;100525.41;5033590;28;20431;-90
2022/08/19 01:36:05;;;;;;;21.23;12.57;;;;;;;18.37;100.00;100490.22;5016968;28;20485;-89
2022/08/19 01:38:43;;;;;;;22.75;12.30;;;;;;;18.26;100.00;100470.53;5014912;28;20415;-91
2022/08/19 01:41:13;;;;;;;20.50;12.50;;;;;;;18.51;100.00;100500.94;5022516;28;20417;-90
2022/08/19 01:43:41;;;;;;;21.15;12.40;;;;;;;18.33;100.00;100470.78;5025490;28;20427;-92
2022/08/19 01:46:15;;;;;;;23.33;12.68;;;;;;;18.60;100.00;100489.84;5017134;28;20422;-90
2022/08/19 01:48:48;;;;;;;22.02;12.80;;;;;;;18.64;100.00;100504.53;5038323;28;20419;-90
2022/08/19 01:51:17;;;;;;;20.75;12.88;;;;;;;18.60;100.00;100496.16;5016407;28;20419;-91
2022/08/19 01:53:50;;;;;;;22.20;13.25;;;;;;;18.46;100.00;100490.94;5016181;28;20428;-89
2022/08/19 01:56:19;;;;;;;24.15;12.95;;;;;;;18.52;100.00;100494.31;5016496;28;20426;-91
2022/08/19 01:58:52;;;;;;;20.30;12.73;;;;;;;18.43;100.00;100472.31;5024539;28;20758;-91
2022/08/19 02:01:21;;;;;;;23.70;13.15;;;;;;;18.45;100.00;100466.47;5018690;28;20419;-91
2022/08/19 02:03:49;;;;;;;22.88;12.98;;;;;;;18.44;100.00;100484.97;5018875;28;20911;-89
2022/08/19 02:06:18;;;;;;;19.17;11.93;;;;;;;18.51;100.00;100487.16;5016920;28;20415;-91
2022/08/19 02:08:47;;;;;;;20.60;12.15;;;;;;;18.41;100.00;100484.81;5024455;28;20420;-90
2022/08/19 02:11:22;;;;;;;24.43;13.07;;;;;;;18.29;100.00;100486.38;5017490;28;21075;-91
2022/08/19 02:13:56;;;;;;;21.90;13.13;;;;;;;18.36;100.00;100508.69;5032405;28;20433;-90
2022/08/19 02:16:25;;;;;;;20.83;12.15;;;;;;;18.38;100.00;100500.09;5034324;28;20419;-90
2022/08/19 02:18:54;;;;;;;21.65;12.70;;;;;;;18.29;100.00;100471.81;5038124;28;20423;-90
2022/08/19 02:21:24;;;;;;;19.48;12.68;;;;;;;18.47;100.00;100481.53;5016531;28;20430;-92
2022/08/19 02:23:57;;;;;;;20.77;12.68;;;;;;;18.31;100.00;100472.25;5032348;28;20423;-89
2022/08/19 02:26:27;;;;;;;20.52;12.95;;;;;;;18.55;100.00;100482.59;5009709;28;20425;-90
2022/08/19 02:29:01;;;;;;;22.48;13.60;;;;;;;18.42;100.00;100459.72;5029068;28;20424;-90
2022/08/19 02:31:29;;;;;;;20.58;12.98;;;;;;;18.30;100.00;100456.91;5016065;28;20430;-90
2022/08/19 02:33:58;;;;;;;24.00;13.65;;;;;;;18.26;100.00;100445.75;5018946;28;20434;-90
2022/08/19 02:36:26;;;;;;;24.30;12.80;;;;;;;18.21;100.00;100451.44;5033406;28;20426;-93
2022/08/19 02:38:54;;;;;;;20.20;12.75;;;;;;;18.13;100.00;100438.56;5032086;28;20431;-92
2022/08/19 02:41:26;;;;;;;22.40;13.95;;;;;;;18.41;100.00;100473.78;5023292;28;20424;-91
2022/08/19 02:43:57;;;;;;;22.02;13.20;;;;;;;18.26;100.00;100450.47;5023572;28;20423;-91
2022/08/19 02:46:29;;;;;;;23.80;13.32;;;;;;;18.50;100.00;100477.28;5017051;28;20407;-90
2022/08/19 02:49:01;;;;;;;23.63;13.55;;;;;;;18.27;100.00;100461.13;5018463;28;20437;-91
2022/08/19 02:51:32;;;;;;;22.65;13.50;;;;;;;18.33;100.00;100475.50;5015917;28;20419;-90
2022/08/19 02:54:01;;;;;;;25.40;13.65;;;;;;;18.32;100.00;100480.19;5019285;28;20417;-89
2022/08/19 02:56:30;;;;;;;21.90;13.48;;;;;;;18.24;100.00;100474.75;5039423;28;20922;-91
2022/08/19 02:59:00;;;;;;;22.13;13.88;;;;;;;18.22;100.00;100474.31;5022274;28;20411;-89
2022/08/19 03:01:31;;;;;;;24.67;14.27;;;;;;;18.01;100.00;100458.59;5033055;28;20428;-94
2022/08/19 03:04:02;;;;;;;25.13;14.07;;;;;;;18.11;100.00;100462.88;5015657;28;20418;-91
2022/08/19 03:06:31;;;;;;;23.33;13.57;;;;;;;18.01;100.00;100464.09;5032839;28;20418;-91
2022/08/19 03:08:59;;;;;;;22.50;14.27;;;;;;;17.99;100.00;100475.44;5044243;28;20516;-91
2022/08/19 03:11:31;;;;;;;23.77;14.30;;;;;;;18.09;100.00;100490.75;5014975;28;20414;-91
2022/08/19 03:14:01;;;;;;;25.23;14.00;;;;;;;18.11;100.00;100471.94;5036046;28;20415;-91
2022/08/19 03:16:32;;;;;;;23.85;14.05;;;;;;;18.29;100.00;100505.66;5032488;28;20426;-90
2022/08/19 03:19:02;;;;;;;24.02;13.98;;;;;;;18.32;100.00;100501.44;5028803;28;20409;-91
2022/08/19 03:21:33;;;;;;;20.48;12.82;;;;;;;18.22;100.00;100512.88;5031000;28;20498;-91
2022/08/19 03:24:04;;;;;;;24.35;13.02;;;;;;;18.08;100.00;100497.41;5010820;28;20435;-90
2022/08/19 03:26:40;;;;;;;25.77;14.40;;;;;;;18.09;100.00;100501.78;5031151;28;20431;-89
2022/08/19 03:29:11;;;;;;;23.33;13.15;;;;;;;18.09;100.00;100493.53;5014631;28;20807;-91
2022/08/19 03:31:40;;;;;;;24.95;13.20;;;;;;;18.31;100.00;100525.44;5014950;28;20911;-91
2022/08/19 03:34:09;;;;;;;22.30;13.43;;;;;;;18.21;100.00;100525.03;5010584;28;20431;-91
2022/08/19 03:36:38;;;;;;;21.95;13.10;;;;;;;18.12;100.00;100495.59;5015903;28;20891;-92
2022/08/19 03:39:08;;;;;;;22.87;13.40;;;;;;;18.18;100.00;100512.72;5017609;28;20425;-91
2022/08/19 03:41:44;;;;;;;23.20;13.65;;;;;;;18.30;100.00;100518.31;5011843;28;20407;-92
2022/08/19 03:44:22;;;;;;;22.70;13.85;;;;;;;18.34;100.00;100504.66;5006080;28;20418;-91
2022/08/19 03:46:57;;;;;;;21.73;13.38;;;;;;;18.30;100.00;100521.06;5009300;28;20415;-89
2022/08/19 03:49:28;;;;;;;26.42;14.15;;;;;;;18.32;100.00;100532.53;5031627;28;20414;-91
2022/08/19 03:52:04;;;;;;;23.53;13.83;;;;;;;18.35;100.00;100540.16;5018804;28;20431;-88
2022/08/19 03:54:38;;;;;;;27.10;14.50;;;;;;;18.22;100.00;100538.44;5009717;28;20419;-91
2022/08/19 03:57:11;;;;;;;23.53;14.03;;;;;;;18.31;100.00;100546.63;5031111;28;20427;-91
2022/08/19 03:59:41;;;;;;;24.85;14.57;;;;;;;18.24;100.00;100518.84;5024067;28;20906;-91
2022/08/19 04:02:14;;;;;;;22.60;13.50;;;;;;;18.27;100.00;100537.44;5018577;28;20430;-92
2022/08/19 04:04:44;;;;;;;23.08;13.68;;;;;;;18.36;100.00;100558.25;5014048;28;20418;-91
2022/08/19 04:07:15;;;;;;;25.45;14.02;;;;;;;18.32;100.00;100548.25;5031199;28;20426;-90
2022/08/19 04:09:43;;;;;;;21.48;12.88;;;;;;;18.29;100.00;100543.44;5014364;28;20427;-92
2022/08/19 04:12:12;;;;;;;25.20;13.67;;;;;;;18.27;100.00;100560.28;5028498;28;20455;-91
2022/08/19 04:14:42;;;;;;;22.85;13.45;;;;;;;18.20;100.00;100529.69;5016329;28;20430;-93
2022/08/19 04:17:11;;;;;;;26.88;14.18;;;;;;;18.25;100.00;100543.28;5014879;28;20430;-92
2022/08/19 04:19:39;;;;;;;25.80;14.32;;;;;;;18.35;100.00;100551.16;5014895;28;21008;-90
2022/08/19 04:22:13;;;;;;;23.67;13.68;;;;;;;18.18;100.00;100543.00;5033372;28;20418;-90
2022/08/19 04:24:41;;;;;;;25.42;13.60;;;;;;;18.21;100.00;100531.31;5014495;28;20430;-92
2022/08/19 04:27:09;;;;;;;23.88;13.25;;;;;;;18.34;100.00;100557.00;5031636;28;20419;-91
2022/08/19 04:29:44;;;;;;;26.07;13.37;;;;;;;18.28;100.00;100523.31;5014666;28;20420;-92
2022/08/19 04:32:15;;;;;;;24.08;12.75;;;;;;;18.58;100.00;100544.50;5032668;28;20421;-92
2022/08/19 04:34:43;;;;;;;23.98;13.82;;;;;;;18.18;100.00;100521.78;5014421;28;20415;-90
2022/08/19 04:37:16;;;;;;;23.57;13.17;;;;;;;18.23;100.00;100542.81;5034251;28;20422;-92
2022/08/19 04:42:41;;;;;;;22.08;12.80;;;;;;;18.31;100.00;100533.69;5025503;28;20415;-91
2022/08/19 04:45:15;;;;;;;29.63;13.65;;;;;;;18.18;100.00;100551.28;5013950;28;20434;-90
2022/08/19 04:47:44;;;;;;;25.02;13.40;;;;;;;18.28;100.00;100550.06;5007102;28;20783;-93
2022/08/19 04:50:18;;;;;;;28.48;13.32;;;;;;;18.28;100.00;100563.84;5019368;28;20425;-91
2022/08/19 04:52:52;;;;;;;25.77;13.23;;;;;;;18.29;100.00;100566.25;5018136;28;20764;-91
2022/08/19 04:55:26;;;;;;;24.60;13.15;;;;;;;18.29;100.00;100558.00;5035305;28;20418;-90
2022/08/19 04:57:55;;;;;;;24.42;13.20;;;;;;;18.18;100.00;100574.09;5033574;28;20411;-90
2022/08/19 05:00:25;;;;;;;28.73;13.18;;;;;;;18.25;100.00;100575.53;5017413;28;20453;-90
2022/08/19 05:02:53;;;;;;;23.83;12.57;;;;;;;18.16;100.00;100561.81;5017683;28;20787;-90
2022/08/19 05:05:21;;;;;;;21.95;12.10;;;;;;;18.38;100.00;100563.47;5033976;28;21057;-91
2022/08/19 05:07:50;;;;;;;25.05;12.48;;;;;;;18.34;100.00;100557.00;5017968;28;20418;-90
2022/08/19 05:10:18;;;;;;;23.10;12.10;;;;;;;18.36;100.00;100562.97;5017335;28;20449;-91
2022/08/19 05:12:46;;;;;;;20.83;12.00;;;;;;;18.34;100.00;100568.81;5034079;28;20426;-90
2022/08/19 05:15:15;;;;;;;22.92;12.20;;;;;;;18.22;100.00;100551.44;5017255;28;20779;-92
2022/08/19 05:22:31;;;;;;;23.27;12.80;;;;;;;18.15;100.00;100562.97;5034517;28;20418;-91
2022/08/19 05:23:18;;;;;;;28.53;13.03;;;;;;;18.06;100.00;100543.72;5015479;28;20423;-90
2022/08/19 05:25:46;;;;;;;25.48;12.68;;;;;;;18.23;100.00;100559.34;5018656;28;20438;-90
2022/08/19 05:28:15;;;;;;;23.23;12.48;;;;;;;18.22;100.00;100557.72;5033169;28;20902;-90
2022/08/19 05:30:44;;;;;;;23.67;12.32;;;;;;;18.33;100.00;100572.72;5033746;28;20418;-91
2022/08/19 05:33:19;;;;;;;21.80;11.73;;;;;;;18.19;100.00;100550.16;5024652;28;20415;-92
2022/08/19 05:35:52;;;;;;;23.63;12.15;;;;;;;18.31;100.00;100577.78;5033676;28;20422;-91
2022/08/19 05:38:21;;;;;;;23.90;11.93;;;;;;;18.14;100.00;100547.56;5023950;28;20425;-90
2022/08/19 05:40:49;;;;;;;21.63;11.82;;;;;;;18.30;100.00;100570.63;5036595;28;20435;-90
2022/08/19 05:43:17;;;;;;;22.13;12.18;;;;;;;18.33;100.00;100564.44;5036017;28;20478;-90
2022/08/19 05:45:46;;;;;;;24.73;11.35;;;;;;;18.19;100.00;100552.91;5033500;28;20415;-92
2022/08/19 05:48:14;;;;;;;22.27;11.88;;;;;;;18.15;100.00;100546.44;5016531;28;20441;-91
2022/08/19 05:50:45;;;;;;;21.40;11.63;;;;;;;18.31;100.00;100555.72;5022412;28;20426;-91
2022/08/19 05:53:14;;;;;;;22.88;11.60;;;;;;;18.38;100.00;100554.38;5016050;28;20418;-90
2022/08/19 05:55:43;;;;;;;21.70;11.75;;;;;;;18.28;100.00;100548.13;5016694;28;20419;-91
2022/08/19 05:58:11;;;;;;;21.73;11.38;;;;;;;18.17;100.00;100538.63;5016546;28;20415;-91
2022/08/19 06:00:39;;;;;;;23.23;12.02;;;;;;;18.34;100.00;100554.25;5016371;28;20506;-90
2022/08/19 06:03:08;;;;;;;20.67;11.32;;;;;;;18.28;100.00;100536.31;5016967;28;20430;-91
2022/08/19 06:05:36;;;;;;;20.92;11.23;;;;;;;18.26;100.00;100549.63;5012167;28;20904;-91
2022/08/19 06:08:11;;;;;;;20.30;11.02;;;;;;;18.26;100.00;100555.91;5009604;28;20423;-90
2022/08/19 06:10:39;;;;;;;21.92;11.18;;;;;;;18.04;100.00;100525.97;5014418;28;20431;-89
2022/08/19 06:13:12;;;;;;;20.63;11.15;;;;;;;18.15;100.00;100527.97;5032332;28;20415;-90
2022/08/19 06:15:46;;;;;;;21.95;11.10;;;;;;;18.29;100.00;100544.22;5019511;28;20438;-90
2022/08/19 06:18:19;;;;;;;21.00;11.32;;;;;;;18.36;100.00;100552.75;5031632;28;20426;-91
2022/08/19 06:20:48;;;;;;;22.10;11.25;;;;;;;18.28;100.00;100539.84;5016573;28;20427;-91
2022/08/19 06:23:20;;;;;;;21.58;11.07;;;;;;;18.21;100.00;100533.28;5032418;28;20796;-90
2022/08/19 06:25:48;;;;;;;19.83;10.80;;;;;;;18.42;100.00;100536.84;5016263;28;20407;-90
2022/08/19 06:28:16;;;;;;;19.27;10.52;;;;;;;18.33;100.00;100525.88;5031986;28;20435;-91
2022/08/19 06:30:44;;;;;;;18.00;10.30;;;;;;;18.43;100.00;100524.66;5032744;28;20450;-91
2022/08/19 06:33:13;;;;;;;21.65;11.15;;;;;;;18.34;100.00;100510.19;5015268;28;20427;-91
2022/08/19 06:35:41;;;;;;;20.77;10.13;;;;;;;18.38;100.00;100502.84;5011562;28;20442;-90
2022/08/19 06:38:10;;;;;;;23.17;10.88;;;;;;;18.42;100.00;100538.78;5017169;28;20430;-91
2022/08/19 06:40:45;;;;;;;20.45;11.23;;;;;;;18.36;100.00;100535.44;5012806;28;20895;-90
2022/08/19 06:43:15;;;;;;;21.98;11.57;;;;;;;18.29;100.00;100515.88;5030079;28;20419;-90
2022/08/19 06:45:47;;;;;;;21.10;11.00;;;;;;;18.50;100.00;100544.22;5010732;28;20428;-89
2022/08/19 06:48:20;;;;;;;20.08;10.85;;;;;;;18.45;100.00;100530.66;5031697;28;20427;-90
2022/08/19 06:50:51;;;;;;;20.45;10.82;;;;;;;18.55;100.00;100545.97;5015458;28;20424;-86
2022/08/19 06:53:19;;;;;;;21.08;11.05;;;;;;;18.56;100.00;100533.81;4997368;28;20441;-89
2022/08/19 06:56:01;;;;;;;23.67;11.90;;;;;;;18.44;100.00;100540.06;5006681;28;20942;-89
2022/08/19 06:58:32;;;;;;;24.17;12.50;;;;;;;18.48;100.00;100537.44;5032136;28;20427;-88
2022/08/19 07:01:07;;;;;;;24.30;11.98;;;;;;;18.44;100.00;100537.31;5011138;28;20419;-87
2022/08/19 07:03:36;;;;;;;23.53;12.17;;;;;;;18.53;100.00;100539.97;5019298;28;20434;-87
2022/08/19 07:06:05;;;;;;;22.75;12.52;;;;;;;18.56;100.00;100533.00;5033743;28;20423;-89
2022/08/19 07:08:40;;;;;;;23.17;12.65;;;;;;;18.44;100.00;100534.56;5023080;28;20425;-89
2022/08/19 07:11:18;;;;;;;25.48;12.68;;;;;;;18.34;100.00;100516.47;5014879;28;20434;-90
2022/08/19 07:13:48;;;;;;;22.92;12.20;;;;;;;18.25;100.00;100518.50;5007948;28;20440;-90
2022/08/19 07:16:21;;;;;;;26.23;13.35;;;;;;;18.18;100.00;100509.97;5003182;28;21797;-90
2022/08/19 07:18:55;;;;;;;24.07;12.27;;;;;;;18.44;100.00;100519.97;5017695;28;20531;-88
2022/08/19 07:21:27;;;;;;;23.13;12.27;;;;;;;18.47;100.00;100525.59;5021205;28;20477;-89
2022/08/19 07:23:57;;;;;;;25.42;13.02;;;;;;;18.40;100.00;100527.31;5003676;28;20438;-89
2022/08/19 07:26:30;;;;;;;24.30;12.40;;;;;;;18.17;100.00;100492.66;5007601;28;20433;-90
2022/08/19 07:29:01;;;;;;;25.48;12.13;;;;;;;18.25;100.00;100510.22;5008353;28;20419;-90
2022/08/19 07:31:36;;;;;;;24.20;12.63;;;;;;;18.43;100.00;100541.19;5010267;28;20503;-87
2022/08/19 07:34:06;;;;;;;23.55;12.27;;;;;;;18.44;100.00;100558.56;5000926;28;20477;-88
2022/08/19 07:36:37;;;;;;;22.87;11.47;;;;;;;18.49;100.00;100564.66;5004651;28;20624;-89
2022/08/19 07:39:14;;;;;;;22.05;11.48;;;;;;;18.43;100.00;100557.72;5003719;28;20798;-90
2022/08/19 07:41:50;;;;;;;19.83;10.57;;;;;;;18.59;100.00;100568.97;4984897;28;20845;-88
2022/08/19 07:44:24;;;;;;;18.67;10.93;;;;;;;18.60;100.00;100583.53;4983471;28;20421;-89
2022/08/19 07:46:55;;;;;;;23.30;11.55;;;;;;;18.61;100.00;100579.66;4998011;28;20435;-89
2022/08/19 07:49:24;;;;;;;21.13;10.88;;;;;;;18.48;100.00;100593.34;4992624;28;20430;-87
2022/08/19 07:51:54;;;;;;;22.58;11.70;;;;;;;18.44;100.00;100583.34;4990881;28;20756;-89
2022/08/19 07:54:30;;;;;;;22.98;11.38;;;;;;;18.38;100.00;100568.16;4994523;28;20433;-90
2022/08/19 07:57:05;;;;;;;19.90;10.80;;;;;;;18.60;100.00;100589.03;4998187;28;20432;-90
2022/08/19 07:59:39;;;;;;;22.83;11.25;;;;;;;18.51;100.00;100591.88;4983746;28;20480;-88
2022/08/19 08:02:12;;;;;;;24.13;11.75;;;;;;;18.48;100.00;100596.13;4987787;28;20464;-89
2022/08/19 08:10:16;;;;;;;23.85;11.50;;;;;;;18.50;100.00;100610.34;4980574;28;20439;-89
2022/08/19 08:12:46;;;;;;;20.73;11.17;;;;;;;18.66;100.00;100620.78;4982683;28;21290;-90
2022/08/19 08:15:19;;;;;;;20.55;11.30;;;;;;;18.58;100.00;100613.41;5000086;28;20433;-89
2022/08/19 08:17:48;;;;;;;20.77;11.80;;;;;;;18.63;100.00;100624.19;4984201;28;20423;-89
2022/08/19 08:20:17;;;;;;;21.43;11.10;;;;;;;18.63;100.00;100625.03;4997498;28;20439;-87
2022/08/19 08:25:37;;;;;;;22.02;12.05;;;;;;;18.67;100.00;100623.22;5001405;28;20443;-88
2022/08/19 08:28:12;;;;;;;21.92;11.82;;;;;;;18.65;100.00;100619.97;5001017;28;20437;-88
2022/08/19 08:30:41;;;;;;;20.42;10.93;;;;;;;18.66;100.00;100618.84;5000881;28;20434;-88
2022/08/19 08:33:17;;;;;;;22.75;12.15;;;;;;;18.61;100.00;100627.28;5002976;28;20429;-88
2022/08/19 08:35:46;;;;;;;21.27;11.85;;;;;;;18.42;100.00;100605.72;4985155;28;20439;-89
2022/08/19 08:38:19;;;;;;;24.67;12.10;;;;;;;18.70;100.00;100635.53;4982591;28;20911;-89
2022/08/19 08:41:06;;;;;;;23.55;12.15;;;;;;;18.80;100.00;100637.06;4988135;28;20422;-89
2022/08/19 08:43:43;;;;;;;23.90;12.77;;;;;;;18.67;100.00;100639.75;4989893;28;20441;-87
2022/08/19 08:46:22;;;;;;;24.65;12.93;;;;;;;18.80;100.00;100639.81;4984855;28;20426;-88
2022/08/19 08:48:54;;;;;;;22.90;12.05;;;;;;;18.75;100.00;100648.28;5006142;28;20437;-88
2022/08/19 08:51:26;;;;;;;23.50;12.25;;;;;;;18.79;100.00;100650.03;4983839;28;20423;-89
2022/08/19 08:53:56;;;;;;;25.75;12.65;;;;;;;18.75;100.00;100635.28;4997114;28;21073;-88
2022/08/19 08:56:25;;;;;;;26.80;13.30;;;;;;;18.84;100.00;100647.06;4991287;28;20427;-89
2022/08/19 08:58:59;;;;;;;27.33;13.20;;;;;;;18.78;100.00;100642.91;4995166;28;20998;-89
2022/08/19 09:01:27;;;;;;;24.60;13.32;;;;;;;18.82;100.00;100638.34;5015751;28;20440;-89
2022/08/19 09:04:04;;;;;;;24.03;12.13;;;;;;;18.90;100.00;100641.38;4997633;28;20436;-91
2022/08/19 09:06:44;;;;;;;25.45;12.55;;;;;;;18.90;100.00;100638.63;5009110;28;20425;-88
2022/08/19 09:09:17;;;;;;;26.77;13.38;;;;;;;18.64;100.00;100623.06;5000931;28;20451;-90
2022/08/19 09:11:56;;;;;;;25.58;12.90;;;;;;;18.77;100.00;100638.53;4997368;28;20427;-88
2022/08/19 09:14:41;;;;;;;27.88;13.65;;;;;;;18.82;100.00;100632.00;5000461;28;20421;-89
2022/08/19 09:17:15;;;;;;;26.10;13.82;;;;;;;18.77;100.00;100644.06;4992758;28;20434;-89
2022/08/19 09:19:53;;;;;;;28.25;13.40;;;;;;;18.66;100.00;100629.06;4989853;28;20446;-89
2022/08/19 09:22:26;;;;;;;28.00;13.40;;;;;;;18.86;100.00;100642.03;4985163;28;21247;-89
2022/08/19 09:24:55;;;;;;;27.20;13.38;;;;;;;18.93;100.00;100643.47;4990944;28;20440;-88
2022/08/19 09:27:29;;;;;;;24.80;13.23;;;;;;;19.10;100.00;100626.75;5009106;28;20438;-90
2022/08/19 09:29:59;;;;;;;24.13;13.18;;;;;;;18.98;100.00;100624.75;4984208;28;20438;-88
2022/08/19 09:32:28;;;;;;;26.83;13.63;;;;;;;19.00;100.00;100635.44;4993894;28;20422;-89
2022/08/19 09:35:01;;;;;;;25.38;13.32;;;;;;;19.07;100.00;100629.38;4991819;28;20437;-89
2022/08/19 09:37:34;;;;;;;25.27;13.20;;;;;;;19.00;100.00;100624.41;5003173;28;21822;-88
2022/08/19 09:40:04;;;;;;;23.90;13.13;;;;;;;19.02;100.00;100630.41;4994636;28;20443;-89
2022/08/19 09:42:37;;;;;;;27.00;13.30;;;;;;;19.12;100.00;100640.22;4996172;28;20864;-89
2022/08/19 09:45:08;;;;;;;24.95;13.25;;;;;;;19.07;100.00;100632.16;5006304;28;21823;-89
2022/08/19 09:47:38;;;;;;;26.70;13.57;;;;;;;19.13;100.00;100630.81;4993257;28;20936;-89
2022/08/19 09:50:13;;;;;;;24.00;12.90;;;;;;;19.18;100.00;100636.09;4995778;28;20918;-89
2022/08/19 09:52:42;;;;;;;24.75;12.45;;;;;;;18.89;100.00;100613.00;5005028;28;20431;-90
2022/08/19 09:55:12;;;;;;;25.90;12.95;;;;;;;19.29;100.00;100640.06;5015116;28;21081;-89
2022/08/19 09:57:45;;;;;;;26.15;13.38;;;;;;;19.18;100.00;100623.13;4990700;28;20438;-89
2022/08/19 10:00:15;;;;;;;24.20;13.20;;;;;;;19.11;100.00;100635.84;5010687;28;20422;-90
2022/08/19 10:02:48;;;;;;;23.02;12.90;;;;;;;19.19;100.00;100638.50;4992122;28;20631;-89
2022/08/19 10:08:12;;;;;;;24.98;12.52;;;;;;;19.14;100.00;100641.50;4989017;28;21160;-88
2022/08/19 10:10:42;;;;;;;24.83;12.82;;;;;;;19.19;100.00;100637.72;4995884;28;20774;-89
2022/08/19 10:13:11;;;;;;;27.20;13.10;;;;;;;19.10;100.00;100614.91;4995963;28;21086;-88
2022/08/19 10:15:41;;;;;;;26.35;13.18;;;;;;;19.21;100.00;100627.16;4996829;28;20816;-89
2022/08/19 10:18:09;;;;;;;23.80;12.68;;;;;;;18.93;100.00;100605.66;4987312;28;20433;-90
2022/08/19 10:20:38;;;;;;;26.15;12.35;;;;;;;19.14;100.00;100626.88;5019272;28;20435;-87
2022/08/19 10:23:07;;;;;;;24.98;11.93;;;;;;;19.17;100.00;100638.06;5025318;28;20408;-87
2022/08/19 10:25:35;;;;;;;24.27;12.27;;;;;;;19.09;100.00;100638.16;5007581;28;20437;-88
2022/08/19 10:28:04;;;;;;;24.95;12.48;;;;;;;19.16;100.00;100649.44;5001558;28;20450;-89
2022/08/19 10:30:37;;;;;;;22.73;11.57;;;;;;;19.12;100.00;100627.22;4990203;28;20446;-89
2022/08/19 10:33:12;;;;;;;22.45;11.13;;;;;;;19.22;100.00;100639.00;4989230;28;20938;-88
2022/08/19 10:35:46;;;;;;;20.77;12.02;;;;;;;19.37;100.00;100641.91;5010186;28;20527;-90
2022/08/19 10:38:14;;;;;;;22.27;11.02;;;;;;;19.20;100.00;100633.81;4995826;28;20437;-90
2022/08/19 10:40:42;;;;;;;23.17;11.70;;;;;;;19.36;100.00;100650.50;5008500;28;20431;-88
2022/08/19 10:43:16;;;;;;;21.38;11.73;;;;;;;19.33;100.00;100646.50;4996443;28;20587;-87
2022/08/19 10:45:44;;;;;;;22.45;11.63;;;;;;;19.27;100.00;100639.56;4990725;28;20429;-88
2022/08/19 10:48:18;;;;;;;23.60;12.80;;;;;;;19.18;100.00;100647.13;5004027;28;20471;-88
2022/08/19 10:53:32;;;;;;;23.17;11.60;;;;;;;19.22;100.00;100639.78;4989643;28;20473;-88
2022/08/19 10:58:51;;;;;;;22.85;11.88;;;;;;;19.19;100.00;100630.22;5006178;28;20423;-89
2022/08/19 11:01:24;;;;;;;23.55;12.23;;;;;;;19.26;100.00;100634.41;4999698;28;20433;-87
2022/08/19 11:03:59;;;;;;;21.38;11.23;;;;;;;19.33;100.00;100641.00;4987727;28;20507;-86
2022/08/19 11:06:32;;;;;;;21.58;11.40;;;;;;;19.45;100.00;100634.69;4993046;28;20439;-87
2022/08/19 11:09:06;;;;;;;19.77;11.63;;;;;;;19.41;100.00;100646.75;4984579;28;20435;-87
2022/08/19 11:11:40;;;;;;;22.70;11.88;;;;;;;19.35;100.00;100643.41;4989515;28;20623;-89
2022/08/19 11:14:20;;;;;;;23.30;12.17;;;;;;;19.37;100.00;100638.34;4973410;28;22336;-87
2022/08/19 11:16:55;;;;;;;22.38;12.00;;;;;;;19.51;100.00;100641.63;5007648;28;20485;-88
2022/08/19 11:19:30;;;;;;;21.73;12.00;;;;;;;19.56;100.00;100637.81;5000466;28;20446;-87
2022/08/19 11:22:02;;;;;;;23.55;12.40;;;;;;;19.48;100.00;100642.28;4985916;28;20434;-86
2022/08/19 11:24:36;;;;;;;25.00;13.05;;;;;;;19.38;100.00;100615.91;4984645;28;20436;-85
2022/08/19 11:27:10;;;;;;;25.23;13.50;;;;;;;19.32;100.00;100641.31;4994786;28;20429;-86
2022/08/19 11:29:39;;;;;;;26.05;13.73;;;;;;;19.13;100.00;100617.81;4991224;28;20442;-87
2022/08/19 11:32:10;;;;;;;27.20;14.10;;;;;;;19.20;100.00;100625.53;4993792;28;20489;-87
2022/08/19 11:34:44;;;;;;;28.42;14.60;;;;;;;19.15;100.00;100621.03;5012778;28;20448;-87
2022/08/19 11:37:12;;;;;;;30.38;15.40;;;;;;;19.17;100.00;100624.25;5031665;28;20983;-88
2022/08/19 11:39:40;;;;;;;32.38;15.52;;;;;;;19.23;100.00;100622.09;4992596;28;20475;-89
2022/08/19 11:44:56;;;;;;;30.27;15.13;;;;;;;19.46;100.00;100624.44;4999148;28;20630;-87